sensor_id;sensor_type;location;lat;lon;timestamp;pressure;altitude;pressure_sealevel;temperature;humidity
27425;BME280;15244;49.088;11.886;2023-05-03T00:02:45;96533.13;;;14.17;47.01
27425;BME280;15244;49.088;11.886;2023-05-03T00:07:48;96531.94;;;14.14;47.17
27425;BME280;15244;49.088;11.886;2023-05-03T00:12:49;96525.66;;;14.03;47.57
27425;BME280;15244;49.088;11.886;2023-05-03T00:17:51;96535.72;;;13.84;47.75
27425;BME280;15244;49.088;11.886;2023-05-03T00:22:53;96535.28;;;13.72;48.02
27425;BME280;15244;49.088;11.886;2023-05-03T00:27:54;96530.13;;;13.56;48.21
27425;BME280;15244;49.088;11.886;2023-05-03T00:32:56;96522.25;;;13.47;48.43
27425;BME280;15244;49.088;11.886;2023-05-03T00:37:58;96522.59;;;13.38;48.26
27425;BME280;15244;49.088;11.886;2023-05-03T00:43:01;96524.03;;;13.25;48.95
27425;BME280;15244;49.088;11.886;2023-05-03T00:48:04;96514.59;;;13.15;49.09
27425;BME280;15244;49.088;11.886;2023-05-03T00:53:07;96519.63;;;13.10;49.20
27425;BME280;15244;49.088;11.886;2023-05-03T00:58:08;96513.75;;;13.04;49.37
27425;BME280;15244;49.088;11.886;2023-05-03T01:03:11;96518.38;;;12.96;49.26
27425;BME280;15244;49.088;11.886;2023-05-03T01:08:43;96519.50;;;12.92;49.39
27425;BME280;15244;49.088;11.886;2023-05-03T01:13:51;96515.53;;;12.86;49.32
27425;BME280;15244;49.088;11.886;2023-05-03T01:18:56;96519.47;;;12.88;49.60
27425;BME280;15244;49.088;11.886;2023-05-03T01:24:17;96523.81;;;12.93;49.25
27425;BME280;15244;49.088;11.886;2023-05-03T01:29:22;96514.81;;;12.92;49.30
27425;BME280;15244;49.088;11.886;2023-05-03T01:34:35;96517.97;;;12.94;49.24
27425;BME280;15244;49.088;11.886;2023-05-03T01:39:54;96512.91;;;12.96;49.21
27425;BME280;15244;49.088;11.886;2023-05-03T01:44:59;96512.50;;;12.98;49.12
27425;BME280;15244;49.088;11.886;2023-05-03T01:50:03;96519.56;;;12.99;49.15
27425;BME280;15244;49.088;11.886;2023-05-03T01:55:08;96514.09;;;12.99;48.93
27425;BME280;15244;49.088;11.886;2023-05-03T02:00:10;96500.41;;;12.99;48.94
27425;BME280;15244;49.088;11.886;2023-05-03T02:05:14;96507.03;;;12.98;48.63
27425;BME280;15244;49.088;11.886;2023-05-03T02:10:16;96505.88;;;12.99;48.94
27425;BME280;15244;49.088;11.886;2023-05-03T02:15:18;96516.84;;;12.99;48.75
27425;BME280;15244;49.088;11.886;2023-05-03T02:20:22;96515.25;;;12.98;48.91
27425;BME280;15244;49.088;11.886;2023-05-03T02:25:24;96518.75;;;12.95;48.92
27425;BME280;15244;49.088;11.886;2023-05-03T02:30:28;96508.94;;;12.90;48.84
27425;BME280;15244;49.088;11.886;2023-05-03T02:35:30;96514.75;;;12.85;49.15
27425;BME280;15244;49.088;11.886;2023-05-03T02:40:32;96512.38;;;12.84;49.05
27425;BME280;15244;49.088;11.886;2023-05-03T02:45:35;96519.78;;;12.79;49.03
27425;BME280;15244;49.088;11.886;2023-05-03T02:50:39;96522.47;;;12.76;48.83
27425;BME280;15244;49.088;11.886;2023-05-03T02:55:42;96505.28;;;12.75;48.99
27425;BME280;15244;49.088;11.886;2023-05-03T03:00:44;96511.16;;;12.74;49.33
27425;BME280;15244;49.088;11.886;2023-05-03T03:05:49;96508.78;;;12.69;49.58
27425;BME280;15244;49.088;11.886;2023-05-03T03:10:52;96508.78;;;12.69;49.43
27425;BME280;15244;49.088;11.886;2023-05-03T03:15:54;96518.91;;;12.68;49.36
27425;BME280;15244;49.088;11.886;2023-05-03T03:20:55;96521.63;;;12.68;49.58
27425;BME280;15244;49.088;11.886;2023-05-03T03:25:57;96520.50;;;12.73;49.37
27425;BME280;15244;49.088;11.886;2023-05-03T03:30:59;96519.38;;;12.74;49.25
27425;BME280;15244;49.088;11.886;2023-05-03T03:36:02;96521.28;;;12.70;49.73
27425;BME280;15244;49.088;11.886;2023-05-03T03:41:10;96526.69;;;12.63;49.40
27425;BME280;15244;49.088;11.886;2023-05-03T03:46:12;96525.88;;;12.58;49.49
27425;BME280;15244;49.088;11.886;2023-05-03T03:51:15;96534.44;;;12.53;49.69
27425;BME280;15244;49.088;11.886;2023-05-03T03:56:20;96528.16;;;12.53;49.62
27425;BME280;15244;49.088;11.886;2023-05-03T04:01:24;96532.41;;;12.50;49.56
27425;BME280;15244;49.088;11.886;2023-05-03T04:06:28;96530.44;;;12.47;49.34
27425;BME280;15244;49.088;11.886;2023-05-03T04:11:36;96540.97;;;12.45;49.75
27425;BME280;15244;49.088;11.886;2023-05-03T04:16:39;96534.72;;;12.45;49.79
27425;BME280;15244;49.088;11.886;2023-05-03T04:21:41;96540.19;;;12.45;49.81
27425;BME280;15244;49.088;11.886;2023-05-03T04:26:44;96551.09;;;12.41;49.85
27425;BME280;15244;49.088;11.886;2023-05-03T04:31:56;96556.50;;;12.38;49.67
27425;BME280;15244;49.088;11.886;2023-05-03T04:36:58;96560.78;;;12.35;49.90
27425;BME280;15244;49.088;11.886;2023-05-03T04:42:01;96560.84;;;12.39;49.98
27425;BME280;15244;49.088;11.886;2023-05-03T04:47:04;96563.19;;;12.40;49.81
27425;BME280;15244;49.088;11.886;2023-05-03T04:52:08;96560.88;;;12.42;49.95
27425;BME280;15244;49.088;11.886;2023-05-03T04:57:15;96563.66;;;12.46;50.02
27425;BME280;15244;49.088;11.886;2023-05-03T05:02:19;96571.09;;;12.49;50.16
27425;BME280;15244;49.088;11.886;2023-05-03T05:07:28;96573.88;;;12.52;50.29
27425;BME280;15244;49.088;11.886;2023-05-03T05:12:33;96579.38;;;12.56;50.27
27425;BME280;15244;49.088;11.886;2023-05-03T05:17:43;96587.19;;;12.54;50.35
27425;BME280;15244;49.088;11.886;2023-05-03T05:22:48;96582.56;;;12.62;50.54
27425;BME280;15244;49.088;11.886;2023-05-03T05:27:57;96583.84;;;12.71;50.51
27425;BME280;15244;49.088;11.886;2023-05-03T05:33:04;96586.63;;;12.78;50.36
27425;BME280;15244;49.088;11.886;2023-05-03T05:38:16;96585.88;;;12.82;50.57
27425;BME280;15244;49.088;11.886;2023-05-03T05:43:23;96598.03;;;12.88;50.28
27425;BME280;15244;49.088;11.886;2023-05-03T05:48:35;96594.59;;;12.94;50.47
27425;BME280;15244;49.088;11.886;2023-05-03T05:53:40;96601.34;;;13.04;50.51
27425;BME280;15244;49.088;11.886;2023-05-03T05:58:48;96604.53;;;13.13;50.15
27425;BME280;15244;49.088;11.886;2023-05-03T06:03:54;96601.06;;;13.20;50.51
27425;BME280;15244;49.088;11.886;2023-05-03T06:09:04;96612.91;;;13.28;50.30
27425;BME280;15244;49.088;11.886;2023-05-03T06:14:28;96607.06;;;13.36;50.43
27425;BME280;15244;49.088;11.886;2023-05-03T06:19:38;96617.72;;;13.45;50.30
27425;BME280;15244;49.088;11.886;2023-05-03T06:24:47;96620.91;;;13.54;50.22
27425;BME280;15244;49.088;11.886;2023-05-03T06:30:00;96619.81;;;13.62;50.20
27425;BME280;15244;49.088;11.886;2023-05-03T06:35:07;96620.25;;;13.72;50.29
27425;BME280;15244;49.088;11.886;2023-05-03T06:40:18;96619.50;;;13.82;49.97
27425;BME280;15244;49.088;11.886;2023-05-03T06:45:23;96626.22;;;13.88;49.88
27425;BME280;15244;49.088;11.886;2023-05-03T06:50:36;96625.44;;;13.91;49.80
27425;BME280;15244;49.088;11.886;2023-05-03T06:55:42;96625.88;;;13.97;49.83
27425;BME280;15244;49.088;11.886;2023-05-03T07:00:55;96630.97;;;13.98;49.59
27425;BME280;15244;49.088;11.886;2023-05-03T07:06:01;96629.44;;;14.04;49.59
27425;BME280;15244;49.088;11.886;2023-05-03T07:11:10;96631.81;;;14.06;49.57
27425;BME280;15244;49.088;11.886;2023-05-03T07:16:16;96627.13;;;14.14;49.68
27425;BME280;15244;49.088;11.886;2023-05-03T07:21:25;96617.00;;;14.25;49.73
27425;BME280;15244;49.088;11.886;2023-05-03T07:26:30;96609.59;;;14.36;49.63
27425;BME280;15244;49.088;11.886;2023-05-03T07:31:41;96609.63;;;14.47;49.61
27425;BME280;15244;49.088;11.886;2023-05-03T07:36:49;96599.13;;;14.56;49.52
27425;BME280;15244;49.088;11.886;2023-05-03T07:41:59;96601.44;;;14.58;49.37
27425;BME280;15244;49.088;11.886;2023-05-03T07:47:04;96603.00;;;14.55;49.26
27425;BME280;15244;49.088;11.886;2023-05-03T07:52:13;96602.25;;;14.65;49.11
27425;BME280;15244;49.088;11.886;2023-05-03T07:57:18;96607.00;;;14.79;49.46
27425;BME280;15244;49.088;11.886;2023-05-03T08:02:29;96599.59;;;14.94;49.14
27425;BME280;15244;49.088;11.886;2023-05-03T08:07:39;96607.81;;;15.08;49.40
27425;BME280;15244;49.088;11.886;2023-05-03T08:12:52;96609.78;;;15.22;49.24
27425;BME280;15244;49.088;11.886;2023-05-03T08:17:56;96603.50;;;15.25;48.45
27425;BME280;15244;49.088;11.886;2023-05-03T08:23:05;96614.09;;;15.30;48.62
27425;BME280;15244;49.088;11.886;2023-05-03T08:28:10;96601.53;;;15.36;48.00
27425;BME280;15244;49.088;11.886;2023-05-03T08:33:18;96606.63;;;15.42;47.94
27425;BME280;15244;49.088;11.886;2023-05-03T08:38:23;96603.88;;;15.49;48.26
27425;BME280;15244;49.088;11.886;2023-05-03T08:43:37;96600.75;;;15.54;47.87
27425;BME280;15244;49.088;11.886;2023-05-03T08:48:49;96611.72;;;15.65;47.80
27425;BME280;15244;49.088;11.886;2023-05-03T08:54:01;96610.16;;;15.78;47.93
27425;BME280;15244;49.088;11.886;2023-05-03T08:59:07;96608.53;;;15.95;48.00
27425;BME280;15244;49.088;11.886;2023-05-03T09:04:15;96605.38;;;16.03;47.26
27425;BME280;15244;49.088;11.886;2023-05-03T09:09:30;96612.06;;;16.02;46.90
27425;BME280;15244;49.088;11.886;2023-05-03T09:14:43;96612.03;;;16.20;47.56
27425;BME280;15244;49.088;11.886;2023-05-03T09:19:54;96610.38;;;16.34;47.01
27425;BME280;15244;49.088;11.886;2023-05-03T09:25:05;96612.66;;;16.50;47.12
27425;BME280;15244;49.088;11.886;2023-05-03T09:30:17;96609.81;;;16.71;46.90
27425;BME280;15244;49.088;11.886;2023-05-03T09:35:27;96611.25;;;16.97;46.85
27425;BME280;15244;49.088;11.886;2023-05-03T09:40:33;96601.59;;;17.23;47.03
27425;BME280;15244;49.088;11.886;2023-05-03T09:45:43;96602.16;;;17.52;46.97
27425;BME280;15244;49.088;11.886;2023-05-03T09:50:50;96603.94;;;17.73;46.00
27425;BME280;15244;49.088;11.886;2023-05-03T09:56:01;96599.81;;;17.92;45.94
27425;BME280;15244;49.088;11.886;2023-05-03T10:01:09;96598.84;;;18.10;45.78
27425;BME280;15244;49.088;11.886;2023-05-03T10:06:28;96599.06;;;18.26;45.90
27425;BME280;15244;49.088;11.886;2023-05-03T10:11:34;96593.84;;;18.32;44.38
27425;BME280;15244;49.088;11.886;2023-05-03T10:16:43;96592.09;;;18.45;44.69
27425;BME280;15244;49.088;11.886;2023-05-03T10:27:12;96588.53;;;18.79;44.03
27425;BME280;15244;49.088;11.886;2023-05-03T10:32:33;96570.84;;;19.00;44.31
27425;BME280;15244;49.088;11.886;2023-05-03T10:37:39;96566.31;;;19.13;43.34
27425;BME280;15244;49.088;11.886;2023-05-03T10:58:38;96560.91;;;19.53;42.20
27425;BME280;15244;49.088;11.886;2023-05-03T11:09:06;96557.72;;;19.98;41.87
27425;BME280;15244;49.088;11.886;2023-05-03T11:14:08;96552.97;;;20.19;41.45
27425;BME280;15244;49.088;11.886;2023-05-03T11:19:11;96555.72;;;20.39;41.60
27425;BME280;15244;49.088;11.886;2023-05-03T11:24:14;96545.06;;;20.57;41.63
27425;BME280;15244;49.088;11.886;2023-05-03T11:29:17;96540.16;;;20.65;41.03
27425;BME280;15244;49.088;11.886;2023-05-03T11:34:19;96543.13;;;20.74;40.73
27425;BME280;15244;49.088;11.886;2023-05-03T11:39:21;96531.94;;;20.77;39.62
27425;BME280;15244;49.088;11.886;2023-05-03T11:44:24;96534.91;;;20.87;40.03
27425;BME280;15244;49.088;11.886;2023-05-03T11:49:28;96547.63;;;21.00;39.27
27425;BME280;15244;49.088;11.886;2023-05-03T11:54:35;96539.75;;;21.15;39.64
27425;BME280;15244;49.088;11.886;2023-05-03T11:59:38;96541.50;;;21.26;39.22
27425;BME280;15244;49.088;11.886;2023-05-03T12:04:42;96530.41;;;21.26;38.22
27425;BME280;15244;49.088;11.886;2023-05-03T12:09:53;96531.88;;;21.14;36.83
27425;BME280;15244;49.088;11.886;2023-05-03T12:15:34;96537.47;;;20.94;36.34
27425;BME280;15244;49.088;11.886;2023-05-03T12:21:01;96527.38;;;20.87;36.37
27425;BME280;15244;49.088;11.886;2023-05-03T12:26:27;96531.00;;;21.00;36.85
27425;BME280;15244;49.088;11.886;2023-05-03T12:31:39;96522.00;;;20.96;36.46
27425;BME280;15244;49.088;11.886;2023-05-03T12:36:46;96518.28;;;20.87;36.04
27425;BME280;15244;49.088;11.886;2023-05-03T12:41:58;96516.59;;;20.73;35.92
27425;BME280;15244;49.088;11.886;2023-05-03T12:47:10;96512.91;;;20.80;37.33
27425;BME280;15244;49.088;11.886;2023-05-03T12:52:34;96506.94;;;20.97;37.46
27425;BME280;15244;49.088;11.886;2023-05-03T12:57:41;96502.50;;;21.16;37.18
27425;BME280;15244;49.088;11.886;2023-05-03T13:03:12;96501.59;;;21.36;37.02
27425;BME280;15244;49.088;11.886;2023-05-03T13:08:24;96489.84;;;21.48;35.67
27425;BME280;15244;49.088;11.886;2023-05-03T13:13:39;96484.00;;;21.59;36.63
27425;BME280;15244;49.088;11.886;2023-05-03T13:18:44;96484.56;;;21.67;35.65
27425;BME280;15244;49.088;11.886;2023-05-03T13:23:47;96483.38;;;21.68;34.70
27425;BME280;15244;49.088;11.886;2023-05-03T13:28:49;96476.97;;;21.54;33.88
27425;BME280;15244;49.088;11.886;2023-05-03T13:33:52;96475.59;;;21.46;33.81
27425;BME280;15244;49.088;11.886;2023-05-03T13:38:58;96476.75;;;21.32;32.74
27425;BME280;15244;49.088;11.886;2023-05-03T13:44:02;96469.72;;;21.28;33.19
27425;BME280;15244;49.088;11.886;2023-05-03T13:49:05;96464.53;;;21.30;32.98
27425;BME280;15244;49.088;11.886;2023-05-03T13:54:08;96453.94;;;21.41;33.00
27425;BME280;15244;49.088;11.886;2023-05-03T13:59:11;96447.00;;;21.49;33.21
27425;BME280;15244;49.088;11.886;2023-05-03T14:04:14;96434.72;;;21.63;33.04
27425;BME280;15244;49.088;11.886;2023-05-03T14:09:17;96431.38;;;21.55;32.70
27425;BME280;15244;49.088;11.886;2023-05-03T14:14:19;96429.03;;;21.54;32.03
27425;BME280;15244;49.088;11.886;2023-05-03T14:19:20;96426.81;;;21.49;31.98
27425;BME280;15244;49.088;11.886;2023-05-03T14:24:23;96423.47;;;21.54;31.80
27425;BME280;15244;49.088;11.886;2023-05-03T14:29:25;96427.22;;;21.76;32.78
27425;BME280;15244;49.088;11.886;2023-05-03T14:34:28;96418.34;;;21.81;31.34
27425;BME280;15244;49.088;11.886;2023-05-03T14:39:30;96423.47;;;21.83;31.88
27425;BME280;15244;49.088;11.886;2023-05-03T14:44:31;96422.56;;;21.86;31.19
27425;BME280;15244;49.088;11.886;2023-05-03T14:49:33;96430.13;;;21.85;31.25
27425;BME280;15244;49.088;11.886;2023-05-03T14:54:40;96434.38;;;22.03;31.07
27425;BME280;15244;49.088;11.886;2023-05-03T14:59:43;96424.41;;;22.18;30.64
27425;BME280;15244;49.088;11.886;2023-05-03T15:04:46;96433.00;;;22.37;30.55
27425;BME280;15244;49.088;11.886;2023-05-03T15:09:47;96427.88;;;22.48;30.37
27425;BME280;15244;49.088;11.886;2023-05-03T15:14:49;96435.19;;;22.67;31.31
27425;BME280;15244;49.088;11.886;2023-05-03T15:19:51;96434.03;;;22.90;30.99
27425;BME280;15244;49.088;11.886;2023-05-03T15:24:53;96424.22;;;23.11;30.38
27425;BME280;15244;49.088;11.886;2023-05-03T15:29:55;96423.75;;;23.26;29.94
27425;BME280;15244;49.088;11.886;2023-05-03T15:34:57;96423.84;;;23.35;29.38
27425;BME280;15244;49.088;11.886;2023-05-03T15:40:00;96416.53;;;23.50;29.92
27425;BME280;15244;49.088;11.886;2023-05-03T15:45:03;96411.53;;;23.67;30.31
27425;BME280;15244;49.088;11.886;2023-05-03T15:50:05;96410.94;;;23.85;29.91
27425;BME280;15244;49.088;11.886;2023-05-03T15:55:08;96411.72;;;23.95;28.83
27425;BME280;15244;49.088;11.886;2023-05-03T16:00:10;96420.16;;;23.82;27.64
27425;BME280;15244;49.088;11.886;2023-05-03T16:05:13;96423.44;;;23.81;28.37
27425;BME280;15244;49.088;11.886;2023-05-03T16:10:14;96420.56;;;23.93;28.66
27425;BME280;15244;49.088;11.886;2023-05-03T16:15:17;96426.53;;;23.83;27.60
27425;BME280;15244;49.088;11.886;2023-05-03T16:20:21;96426.97;;;23.81;27.97
27425;BME280;15244;49.088;11.886;2023-05-03T16:25:23;96417.91;;;23.90;27.20
27425;BME280;15244;49.088;11.886;2023-05-03T16:30:25;96411.78;;;24.04;27.67
27425;BME280;15244;49.088;11.886;2023-05-03T16:35:27;96410.94;;;24.16;27.51
27425;BME280;15244;49.088;11.886;2023-05-03T16:40:29;96408.50;;;24.28;27.45
27425;BME280;15244;49.088;11.886;2023-05-03T16:45:32;96405.09;;;24.23;26.26
27425;BME280;15244;49.088;11.886;2023-05-03T16:50:34;96403.41;;;24.26;25.88
27425;BME280;15244;49.088;11.886;2023-05-03T16:55:37;96412.19;;;24.25;26.27
27425;BME280;15244;49.088;11.886;2023-05-03T17:00:39;96404.16;;;24.27;25.67
27425;BME280;15244;49.088;11.886;2023-05-03T17:05:40;96411.16;;;24.31;26.25
27425;BME280;15244;49.088;11.886;2023-05-03T17:10:42;96402.66;;;24.35;25.37
27425;BME280;15244;49.088;11.886;2023-05-03T17:15:45;96405.09;;;24.33;25.47
27425;BME280;15244;49.088;11.886;2023-05-03T17:20:47;96404.00;;;24.30;24.86
27425;BME280;15244;49.088;11.886;2023-05-03T17:25:56;96403.50;;;24.13;24.12
27425;BME280;15244;49.088;11.886;2023-05-03T17:30:59;96412.53;;;23.95;24.46
27425;BME280;15244;49.088;11.886;2023-05-03T17:36:01;96416.03;;;23.87;24.76
27425;BME280;15244;49.088;11.886;2023-05-03T17:41:06;96410.09;;;23.75;24.99
27425;BME280;15244;49.088;11.886;2023-05-03T17:46:10;96411.34;;;23.62;25.27
27425;BME280;15244;49.088;11.886;2023-05-03T17:51:13;96411.34;;;23.40;25.36
27425;BME280;15244;49.088;11.886;2023-05-03T17:56:16;96404.66;;;23.15;25.61
27425;BME280;15244;49.088;11.886;2023-05-03T18:01:18;96412.91;;;22.93;25.76
27425;BME280;15244;49.088;11.886;2023-05-03T18:06:20;96414.06;;;22.70;26.08
27425;BME280;15244;49.088;11.886;2023-05-03T18:11:22;96413.97;;;22.48;26.26
27425;BME280;15244;49.088;11.886;2023-05-03T18:16:24;96409.53;;;22.25;26.67
27425;BME280;15244;49.088;11.886;2023-05-03T18:21:27;96417.72;;;22.03;26.87
27425;BME280;15244;49.088;11.886;2023-05-03T18:26:29;96427.44;;;21.82;27.06
27425;BME280;15244;49.088;11.886;2023-05-03T18:31:30;96428.06;;;21.60;27.10
27425;BME280;15244;49.088;11.886;2023-05-03T18:36:32;96438.59;;;21.36;27.34
27425;BME280;15244;49.088;11.886;2023-05-03T18:41:34;96440.03;;;21.12;27.64
27425;BME280;15244;49.088;11.886;2023-05-03T18:46:37;96449.00;;;20.87;28.24
27425;BME280;15244;49.088;11.886;2023-05-03T18:51:39;96447.19;;;20.64;28.58
27425;BME280;15244;49.088;11.886;2023-05-03T18:56:41;96446.50;;;20.40;28.67
27425;BME280;15244;49.088;11.886;2023-05-03T19:01:43;96453.38;;;20.15;29.03
27425;BME280;15244;49.088;11.886;2023-05-03T19:06:45;96460.50;;;19.96;29.14
27425;BME280;15244;49.088;11.886;2023-05-03T19:11:46;96466.81;;;19.77;29.41
27425;BME280;15244;49.088;11.886;2023-05-03T19:16:49;96464.81;;;19.57;29.63
27425;BME280;15244;49.088;11.886;2023-05-03T19:21:51;96468.72;;;19.40;29.78
27425;BME280;15244;49.088;11.886;2023-05-03T19:26:53;96467.03;;;19.22;30.08
27425;BME280;15244;49.088;11.886;2023-05-03T19:31:55;96469.69;;;19.06;30.09
27425;BME280;15244;49.088;11.886;2023-05-03T19:36:57;96474.31;;;18.89;30.30
27425;BME280;15244;49.088;11.886;2023-05-03T19:41:59;96474.16;;;18.73;30.50
27425;BME280;15244;49.088;11.886;2023-05-03T19:47:01;96473.19;;;18.59;30.69
27425;BME280;15244;49.088;11.886;2023-05-03T19:52:04;96476.53;;;18.47;30.99
27425;BME280;15244;49.088;11.886;2023-05-03T19:57:06;96478.28;;;18.34;31.16
27425;BME280;15244;49.088;11.886;2023-05-03T20:02:08;96483.59;;;18.21;31.28
27425;BME280;15244;49.088;11.886;2023-05-03T20:07:10;96484.56;;;18.07;31.31
27425;BME280;15244;49.088;11.886;2023-05-03T20:12:11;96487.84;;;17.95;31.51
27425;BME280;15244;49.088;11.886;2023-05-03T20:17:15;96478.56;;;17.82;31.56
27425;BME280;15244;49.088;11.886;2023-05-03T20:22:18;96485.75;;;17.72;31.89
27425;BME280;15244;49.088;11.886;2023-05-03T20:27:20;96482.75;;;17.59;31.99
27425;BME280;15244;49.088;11.886;2023-05-03T20:32:22;96475.81;;;17.47;32.10
27425;BME280;15244;49.088;11.886;2023-05-03T20:37:24;96478.25;;;17.38;32.22
27425;BME280;15244;49.088;11.886;2023-05-03T20:42:26;96468.91;;;17.28;32.42
27425;BME280;15244;49.088;11.886;2023-05-03T20:47:28;96467.03;;;17.18;32.56
27425;BME280;15244;49.088;11.886;2023-05-03T20:52:30;96467.53;;;17.09;32.55
27425;BME280;15244;49.088;11.886;2023-05-03T20:57:32;96467.59;;;16.99;32.81
27425;BME280;15244;49.088;11.886;2023-05-03T21:02:33;96459.44;;;16.88;32.55
27425;BME280;15244;49.088;11.886;2023-05-03T21:07:35;96466.97;;;16.80;33.02
27425;BME280;15244;49.088;11.886;2023-05-03T21:12:37;96459.94;;;16.72;32.77
27425;BME280;15244;49.088;11.886;2023-05-03T21:17:38;96456.47;;;16.64;33.30
27425;BME280;15244;49.088;11.886;2023-05-03T21:22:40;96454.16;;;16.56;33.38
27425;BME280;15244;49.088;11.886;2023-05-03T21:27:42;96457.38;;;16.47;33.27
27425;BME280;15244;49.088;11.886;2023-05-03T21:32:43;96454.66;;;16.40;33.38
27425;BME280;15244;49.088;11.886;2023-05-03T21:37:45;96450.00;;;16.33;33.59
27425;BME280;15244;49.088;11.886;2023-05-03T21:42:49;96441.41;;;16.24;33.54
27425;BME280;15244;49.088;11.886;2023-05-03T21:47:52;96437.50;;;16.18;33.91
27425;BME280;15244;49.088;11.886;2023-05-03T21:52:54;96433.63;;;16.12;33.95
27425;BME280;15244;49.088;11.886;2023-05-03T21:57:56;96442.31;;;16.07;33.99
27425;BME280;15244;49.088;11.886;2023-05-03T22:02:57;96443.13;;;16.00;33.91
27425;BME280;15244;49.088;11.886;2023-05-03T22:08:00;96427.03;;;15.95;34.03
27425;BME280;15244;49.088;11.886;2023-05-03T22:13:01;96426.28;;;15.87;34.13
27425;BME280;15244;49.088;11.886;2023-05-03T22:18:03;96428.28;;;15.83;34.09
27425;BME280;15244;49.088;11.886;2023-05-03T22:23:05;96424.00;;;15.78;34.34
27425;BME280;15244;49.088;11.886;2023-05-03T22:28:08;96431.88;;;15.73;34.39
27425;BME280;15244;49.088;11.886;2023-05-03T22:33:10;96421.28;;;15.68;34.43
27425;BME280;15244;49.088;11.886;2023-05-03T22:38:12;96428.34;;;15.61;34.67
27425;BME280;15244;49.088;11.886;2023-05-03T22:43:13;96433.47;;;15.56;34.64
27425;BME280;15244;49.088;11.886;2023-05-03T22:48:15;96429.97;;;15.52;34.70
27425;BME280;15244;49.088;11.886;2023-05-03T22:53:16;96429.97;;;15.48;34.75
27425;BME280;15244;49.088;11.886;2023-05-03T22:58:18;96434.31;;;15.46;34.77
27425;BME280;15244;49.088;11.886;2023-05-03T23:03:19;96437.47;;;15.41;34.79
27425;BME280;15244;49.088;11.886;2023-05-03T23:08:22;96432.38;;;15.35;34.93
27425;BME280;15244;49.088;11.886;2023-05-03T23:13:27;96429.25;;;15.30;35.04
27425;BME280;15244;49.088;11.886;2023-05-03T23:18:28;96443.41;;;15.25;35.28
27425;BME280;15244;49.088;11.886;2023-05-03T23:23:30;96427.72;;;15.18;35.17
27425;BME280;15244;49.088;11.886;2023-05-03T23:28:31;96415.59;;;15.12;35.24
27425;BME280;15244;49.088;11.886;2023-05-03T23:33:33;96426.56;;;15.05;35.49
27425;BME280;15244;49.088;11.886;2023-05-03T23:38:35;96423.84;;;14.98;35.75
27425;BME280;15244;49.088;11.886;2023-05-03T23:43:36;96421.50;;;14.92;35.54
27425;BME280;15244;49.088;11.886;2023-05-03T23:48:38;96425.03;;;14.86;35.79
27425;BME280;15244;49.088;11.886;2023-05-03T23:53:40;96425.06;;;14.79;35.59
27425;BME280;15244;49.088;11.886;2023-05-03T23:58:41;96418.75;;;14.71;35.99
